Cannon Ball, North Dakota
Current Conditions -  °F | °C
As of 11:15 AM on Monday 24 Nov 2014 (Local Time) from K7L2 Reporting Station
Clear Clear  
Wind Chill:   Ceiling: Unl
Heat Index: 19°   Visibility: 10mi
Dew Point:   Wind: 14mph
Humidity: 63%   Direction: 320°NW
Pressure: 29.9"   Gusts: 21mph
Location:  46.4°N, 100.6°W
Report Text: K7L2 241815Z AUTO 32012G18KT 10SM CLR M07/M13 A2990 RMK AO2
Loading
Personal Weather Stations






























Interactive Weather Map New forecast layout! Learn more

10-Day Weather Forecast

Advertisements
Track Severe Weather on mobile